Terminal Aerodrome Forecast
Issued by NWS

Current Version | Previous Version | Text Only | Print | Product List | Glossary On
Versions: 1 2 3 4 5 6 7 8 9 10 11 12
000
FTPQ31 PGUM 121720
TAFGUM
TAF

TAF
PTKK 121720Z 1218/1318 09011KT P6SM VCSH SCT012 SCT040 BKN120
      TEMPO 1219/1223 4SM SHRA SCT012 BKN025 OVC050=

USA.gov is the U.S. government's official web portal to all federal, state and local government web resources and services.